sensor_id;sensor_type;location;lat;lon;timestamp;P1;durP1;ratioP1;P2;durP2;ratioP2
32786;SDS011;19139;49.372;8.580;2023-04-06T00:01:32;26.17;;;16.77;;
32786;SDS011;19139;49.372;8.580;2023-04-06T00:04:04;23.87;;;16.37;;
32786;SDS011;19139;49.372;8.580;2023-04-06T00:06:31;23.43;;;16.87;;
32786;SDS011;19139;49.372;8.580;2023-04-06T00:08:59;20.00;;;14.93;;
32786;SDS011;19139;49.372;8.580;2023-04-06T00:11:26;21.67;;;15.97;;
32786;SDS011;19139;49.372;8.580;2023-04-06T00:13:53;23.37;;;15.60;;
32786;SDS011;19139;49.372;8.580;2023-04-06T00:16:24;23.17;;;16.30;;
32786;SDS011;19139;49.372;8.580;2023-04-06T00:18:56;22.73;;;16.40;;
32786;SDS011;19139;49.372;8.580;2023-04-06T00:21:27;23.97;;;15.90;;
32786;SDS011;19139;49.372;8.580;2023-04-06T00:23:59;20.90;;;15.37;;
32786;SDS011;19139;49.372;8.580;2023-04-06T00:26:30;22.13;;;15.57;;
32786;SDS011;19139;49.372;8.580;2023-04-06T00:28:57;21.47;;;15.23;;
32786;SDS011;19139;49.372;8.580;2023-04-06T00:31:25;20.90;;;15.03;;
32786;SDS011;19139;49.372;8.580;2023-04-06T00:33:51;24.30;;;15.07;;
32786;SDS011;19139;49.372;8.580;2023-04-06T00:36:18;22.30;;;15.17;;
32786;SDS011;19139;49.372;8.580;2023-04-06T00:38:45;19.53;;;14.63;;
32786;SDS011;19139;49.372;8.580;2023-04-06T00:41:17;18.90;;;14.00;;
32786;SDS011;19139;49.372;8.580;2023-04-06T00:43:44;21.83;;;14.57;;
32786;SDS011;19139;49.372;8.580;2023-04-06T00:46:11;20.23;;;13.60;;
32786;SDS011;19139;49.372;8.580;2023-04-06T00:48:42;18.77;;;13.37;;
32786;SDS011;19139;49.372;8.580;2023-04-06T00:51:14;19.70;;;13.80;;
32786;SDS011;19139;49.372;8.580;2023-04-06T00:53:45;20.27;;;14.00;;
32786;SDS011;19139;49.372;8.580;2023-04-06T00:56:12;20.20;;;13.77;;
32786;SDS011;19139;49.372;8.580;2023-04-06T00:58:39;19.33;;;13.83;;
32786;SDS011;19139;49.372;8.580;2023-04-06T01:01:06;19.37;;;13.07;;
32786;SDS011;19139;49.372;8.580;2023-04-06T01:03:33;18.50;;;12.53;;
32786;SDS011;19139;49.372;8.580;2023-04-06T01:06:00;16.60;;;12.17;;
32786;SDS011;19139;49.372;8.580;2023-04-06T01:08:27;18.53;;;13.37;;
32786;SDS011;19139;49.372;8.580;2023-04-06T01:10:53;17.10;;;12.90;;
32786;SDS011;19139;49.372;8.580;2023-04-06T01:13:20;17.00;;;12.17;;
32786;SDS011;19139;49.372;8.580;2023-04-06T01:15:47;18.43;;;11.93;;
32786;SDS011;19139;49.372;8.580;2023-04-06T01:18:14;18.10;;;12.57;;
32786;SDS011;19139;49.372;8.580;2023-04-06T01:20:41;15.67;;;12.10;;
32786;SDS011;19139;49.372;8.580;2023-04-06T01:23:08;14.80;;;11.63;;
32786;SDS011;19139;49.372;8.580;2023-04-06T01:25:34;14.90;;;11.17;;
32786;SDS011;19139;49.372;8.580;2023-04-06T01:28:06;17.53;;;12.40;;
32786;SDS011;19139;49.372;8.580;2023-04-06T01:30:33;16.83;;;12.17;;
32786;SDS011;19139;49.372;8.580;2023-04-06T01:33:00;19.67;;;11.87;;
32786;SDS011;19139;49.372;8.580;2023-04-06T01:35:31;17.23;;;11.10;;
32786;SDS011;19139;49.372;8.580;2023-04-06T01:38:03;14.13;;;10.90;;
32786;SDS011;19139;49.372;8.580;2023-04-06T01:40:34;14.40;;;9.80;;
32786;SDS011;19139;49.372;8.580;2023-04-06T01:43:01;14.23;;;10.90;;
32786;SDS011;19139;49.372;8.580;2023-04-06T01:45:28;14.23;;;10.67;;
32786;SDS011;19139;49.372;8.580;2023-04-06T01:47:54;16.07;;;10.60;;
32786;SDS011;19139;49.372;8.580;2023-04-06T01:50:26;14.20;;;10.43;;
32786;SDS011;19139;49.372;8.580;2023-04-06T01:52:52;14.70;;;10.60;;
32786;SDS011;19139;49.372;8.580;2023-04-06T01:55:19;13.27;;;10.97;;
32786;SDS011;19139;49.372;8.580;2023-04-06T01:57:46;14.13;;;9.40;;
32786;SDS011;19139;49.372;8.580;2023-04-06T02:00:12;13.90;;;9.63;;
32786;SDS011;19139;49.372;8.580;2023-04-06T02:02:40;14.50;;;10.27;;
32786;SDS011;19139;49.372;8.580;2023-04-06T02:05:07;12.10;;;9.83;;
32786;SDS011;19139;49.372;8.580;2023-04-06T02:07:39;11.70;;;9.87;;
32786;SDS011;19139;49.372;8.580;2023-04-06T02:10:13;13.43;;;9.43;;
32786;SDS011;19139;49.372;8.580;2023-04-06T02:12:41;13.97;;;10.17;;
32786;SDS011;19139;49.372;8.580;2023-04-06T02:15:12;13.17;;;8.80;;
32786;SDS011;19139;49.372;8.580;2023-04-06T02:17:44;11.63;;;8.90;;
32786;SDS011;19139;49.372;8.580;2023-04-06T02:20:11;11.07;;;9.23;;
32786;SDS011;19139;49.372;8.580;2023-04-06T02:22:43;11.73;;;8.70;;
32786;SDS011;19139;49.372;8.580;2023-04-06T02:25:14;13.20;;;9.20;;
32786;SDS011;19139;49.372;8.580;2023-04-06T02:27:41;13.60;;;9.87;;
32786;SDS011;19139;49.372;8.580;2023-04-06T02:30:13;10.53;;;8.87;;
32786;SDS011;19139;49.372;8.580;2023-04-06T02:32:44;11.00;;;8.00;;
32786;SDS011;19139;49.372;8.580;2023-04-06T02:35:11;12.40;;;8.60;;
32786;SDS011;19139;49.372;8.580;2023-04-06T02:37:38;10.70;;;8.43;;
32786;SDS011;19139;49.372;8.580;2023-04-06T02:40:09;10.43;;;7.97;;
32786;SDS011;19139;49.372;8.580;2023-04-06T02:42:41;14.77;;;9.40;;
32786;SDS011;19139;49.372;8.580;2023-04-06T02:45:08;9.03;;;7.30;;
32786;SDS011;19139;49.372;8.580;2023-04-06T02:47:34;12.47;;;8.20;;
32786;SDS011;19139;49.372;8.580;2023-04-06T02:50:06;10.13;;;7.80;;
32786;SDS011;19139;49.372;8.580;2023-04-06T02:52:38;12.03;;;7.97;;
32786;SDS011;19139;49.372;8.580;2023-04-06T02:55:09;10.77;;;8.43;;
32786;SDS011;19139;49.372;8.580;2023-04-06T02:57:36;9.47;;;7.67;;
32786;SDS011;19139;49.372;8.580;2023-04-06T03:00:03;10.00;;;7.77;;
32786;SDS011;19139;49.372;8.580;2023-04-06T03:02:30;9.87;;;7.53;;
32786;SDS011;19139;49.372;8.580;2023-04-06T03:04:57;10.17;;;7.83;;
32786;SDS011;19139;49.372;8.580;2023-04-06T03:07:23;9.53;;;7.67;;
32786;SDS011;19139;49.372;8.580;2023-04-06T03:09:55;11.03;;;7.67;;
32786;SDS011;19139;49.372;8.580;2023-04-06T03:12:22;9.63;;;7.93;;
32786;SDS011;19139;49.372;8.580;2023-04-06T03:14:49;10.93;;;7.27;;
32786;SDS011;19139;49.372;8.580;2023-04-06T03:17:15;8.97;;;7.03;;
32786;SDS011;19139;49.372;8.580;2023-04-06T03:19:42;7.93;;;6.57;;
32786;SDS011;19139;49.372;8.580;2023-04-06T03:22:08;10.23;;;7.20;;
32786;SDS011;19139;49.372;8.580;2023-04-06T03:24:35;9.13;;;6.10;;
32786;SDS011;19139;49.372;8.580;2023-04-06T03:27:02;8.63;;;6.77;;
32786;SDS011;19139;49.372;8.580;2023-04-06T03:29:29;8.73;;;7.03;;
32786;SDS011;19139;49.372;8.580;2023-04-06T03:31:56;7.43;;;6.53;;
32786;SDS011;19139;49.372;8.580;2023-04-06T03:34:22;8.43;;;7.50;;
32786;SDS011;19139;49.372;8.580;2023-04-06T03:36:49;9.60;;;6.57;;
32786;SDS011;19139;49.372;8.580;2023-04-06T03:39:32;8.00;;;7.07;;
32786;SDS011;19139;49.372;8.580;2023-04-06T03:41:58;8.60;;;5.87;;
32786;SDS011;19139;49.372;8.580;2023-04-06T03:44:25;7.17;;;5.80;;
32786;SDS011;19139;49.372;8.580;2023-04-06T03:46:57;7.67;;;6.03;;
32786;SDS011;19139;49.372;8.580;2023-04-06T03:49:28;7.87;;;6.13;;
32786;SDS011;19139;49.372;8.580;2023-04-06T03:51:55;7.87;;;6.60;;
32786;SDS011;19139;49.372;8.580;2023-04-06T03:54:22;6.80;;;5.90;;
32786;SDS011;19139;49.372;8.580;2023-04-06T03:56:49;7.43;;;5.93;;
32786;SDS011;19139;49.372;8.580;2023-04-06T03:59:16;6.53;;;5.87;;
32786;SDS011;19139;49.372;8.580;2023-04-06T04:01:43;7.00;;;5.57;;
32786;SDS011;19139;49.372;8.580;2023-04-06T04:04:10;6.50;;;5.40;;
32786;SDS011;19139;49.372;8.580;2023-04-06T04:06:41;7.70;;;5.73;;
32786;SDS011;19139;49.372;8.580;2023-04-06T04:09:13;7.77;;;5.50;;
32786;SDS011;19139;49.372;8.580;2023-04-06T04:11:39;6.70;;;5.03;;
32786;SDS011;19139;49.372;8.580;2023-04-06T04:14:06;7.57;;;5.77;;
32786;SDS011;19139;49.372;8.580;2023-04-06T04:16:38;7.27;;;5.30;;
32786;SDS011;19139;49.372;8.580;2023-04-06T04:19:10;6.27;;;5.67;;
32786;SDS011;19139;49.372;8.580;2023-04-06T04:21:42;8.30;;;6.70;;
32786;SDS011;19139;49.372;8.580;2023-04-06T04:24:11;7.13;;;5.90;;
32786;SDS011;19139;49.372;8.580;2023-04-06T04:26:42;6.80;;;6.07;;
32786;SDS011;19139;49.372;8.580;2023-04-06T04:29:10;7.23;;;5.67;;
32786;SDS011;19139;49.372;8.580;2023-04-06T04:31:41;6.93;;;5.43;;
32786;SDS011;19139;49.372;8.580;2023-04-06T04:34:08;8.60;;;5.70;;
32786;SDS011;19139;49.372;8.580;2023-04-06T04:36:35;8.20;;;5.40;;
32786;SDS011;19139;49.372;8.580;2023-04-06T04:39:06;6.30;;;5.47;;
32786;SDS011;19139;49.372;8.580;2023-04-06T04:41:38;8.73;;;6.30;;
32786;SDS011;19139;49.372;8.580;2023-04-06T04:44:10;8.00;;;5.67;;
32786;SDS011;19139;49.372;8.580;2023-04-06T04:46:41;7.07;;;5.37;;
32786;SDS011;19139;49.372;8.580;2023-04-06T04:49:08;6.93;;;6.00;;
32786;SDS011;19139;49.372;8.580;2023-04-06T04:51:35;6.83;;;5.07;;
32786;SDS011;19139;49.372;8.580;2023-04-06T04:54:02;6.70;;;5.17;;
32786;SDS011;19139;49.372;8.580;2023-04-06T04:56:34;6.37;;;5.30;;
32786;SDS011;19139;49.372;8.580;2023-04-06T04:59:00;6.87;;;4.60;;
32786;SDS011;19139;49.372;8.580;2023-04-06T05:01:32;6.03;;;4.83;;
32786;SDS011;19139;49.372;8.580;2023-04-06T05:04:04;7.87;;;5.00;;
32786;SDS011;19139;49.372;8.580;2023-04-06T05:06:30;5.17;;;4.40;;
32786;SDS011;19139;49.372;8.580;2023-04-06T05:09:02;6.93;;;5.03;;
32786;SDS011;19139;49.372;8.580;2023-04-06T05:11:29;5.47;;;4.90;;
32786;SDS011;19139;49.372;8.580;2023-04-06T05:14:00;6.37;;;5.30;;
32786;SDS011;19139;49.372;8.580;2023-04-06T05:16:27;7.20;;;5.20;;
32786;SDS011;19139;49.372;8.580;2023-04-06T05:18:59;5.20;;;4.70;;
32786;SDS011;19139;49.372;8.580;2023-04-06T05:21:30;5.93;;;4.57;;
32786;SDS011;19139;49.372;8.580;2023-04-06T05:24:02;7.07;;;4.90;;
32786;SDS011;19139;49.372;8.580;2023-04-06T05:26:34;6.63;;;4.60;;
32786;SDS011;19139;49.372;8.580;2023-04-06T05:29:06;6.83;;;5.10;;
32786;SDS011;19139;49.372;8.580;2023-04-06T05:31:38;6.67;;;4.53;;
32786;SDS011;19139;49.372;8.580;2023-04-06T05:34:04;5.60;;;4.40;;
32786;SDS011;19139;49.372;8.580;2023-04-06T05:36:36;6.60;;;5.10;;
32786;SDS011;19139;49.372;8.580;2023-04-06T05:39:03;5.63;;;4.00;;
32786;SDS011;19139;49.372;8.580;2023-04-06T05:41:29;5.40;;;4.90;;
32786;SDS011;19139;49.372;8.580;2023-04-06T05:44:01;7.27;;;4.63;;
32786;SDS011;19139;49.372;8.580;2023-04-06T05:46:33;6.10;;;4.33;;
32786;SDS011;19139;49.372;8.580;2023-04-06T05:48:59;7.07;;;4.40;;
32786;SDS011;19139;49.372;8.580;2023-04-06T05:51:26;6.50;;;4.27;;
32786;SDS011;19139;49.372;8.580;2023-04-06T05:53:58;5.97;;;4.60;;
32786;SDS011;19139;49.372;8.580;2023-04-06T05:56:25;5.77;;;4.67;;
32786;SDS011;19139;49.372;8.580;2023-04-06T05:58:57;6.50;;;4.73;;
32786;SDS011;19139;49.372;8.580;2023-04-06T06:01:24;5.13;;;4.60;;
32786;SDS011;19139;49.372;8.580;2023-04-06T06:03:55;8.30;;;4.63;;
32786;SDS011;19139;49.372;8.580;2023-04-06T06:06:22;9.77;;;5.20;;
32786;SDS011;19139;49.372;8.580;2023-04-06T06:08:49;10.70;;;5.30;;
32786;SDS011;19139;49.372;8.580;2023-04-06T06:11:20;13.80;;;4.93;;
32786;SDS011;19139;49.372;8.580;2023-04-06T06:13:47;9.47;;;5.03;;
32786;SDS011;19139;49.372;8.580;2023-04-06T06:16:19;14.53;;;4.90;;
32786;SDS011;19139;49.372;8.580;2023-04-06T06:18:46;11.27;;;5.27;;
32786;SDS011;19139;49.372;8.580;2023-04-06T06:21:17;10.37;;;5.40;;
32786;SDS011;19139;49.372;8.580;2023-04-06T06:23:44;8.73;;;5.33;;
32786;SDS011;19139;49.372;8.580;2023-04-06T06:26:18;9.40;;;5.03;;
32786;SDS011;19139;49.372;8.580;2023-04-06T06:28:49;10.80;;;4.73;;
32786;SDS011;19139;49.372;8.580;2023-04-06T06:31:21;7.93;;;5.00;;
32786;SDS011;19139;49.372;8.580;2023-04-06T06:33:48;11.73;;;5.23;;
32786;SDS011;19139;49.372;8.580;2023-04-06T06:36:18;11.63;;;4.67;;
32786;SDS011;19139;49.372;8.580;2023-04-06T06:38:45;7.47;;;4.40;;
32786;SDS011;19139;49.372;8.580;2023-04-06T06:41:16;7.77;;;4.70;;
32786;SDS011;19139;49.372;8.580;2023-04-06T06:43:43;6.27;;;4.57;;
32786;SDS011;19139;49.372;8.580;2023-04-06T06:46:10;9.83;;;4.50;;
32786;SDS011;19139;49.372;8.580;2023-04-06T06:48:37;6.60;;;4.53;;
32786;SDS011;19139;49.372;8.580;2023-04-06T06:51:03;7.87;;;4.83;;
32786;SDS011;19139;49.372;8.580;2023-04-06T06:53:30;8.10;;;4.67;;
32786;SDS011;19139;49.372;8.580;2023-04-06T06:55:57;11.80;;;5.50;;
32786;SDS011;19139;49.372;8.580;2023-04-06T06:58:29;12.50;;;4.87;;
32786;SDS011;19139;49.372;8.580;2023-04-06T07:01:00;9.47;;;4.50;;
32786;SDS011;19139;49.372;8.580;2023-04-06T07:03:27;12.10;;;5.27;;
32786;SDS011;19139;49.372;8.580;2023-04-06T07:05:53;10.27;;;4.57;;
32786;SDS011;19139;49.372;8.580;2023-04-06T07:08:21;9.47;;;4.77;;
32786;SDS011;19139;49.372;8.580;2023-04-06T07:10:49;9.20;;;4.63;;
32786;SDS011;19139;49.372;8.580;2023-04-06T07:13:18;9.23;;;5.13;;
32786;SDS011;19139;49.372;8.580;2023-04-06T07:15:49;7.73;;;4.50;;
32786;SDS011;19139;49.372;8.580;2023-04-06T07:18:16;8.10;;;3.97;;
32786;SDS011;19139;49.372;8.580;2023-04-06T07:20:44;7.70;;;4.97;;
32786;SDS011;19139;49.372;8.580;2023-04-06T07:23:11;8.27;;;5.33;;
32786;SDS011;19139;49.372;8.580;2023-04-06T07:25:38;9.73;;;4.33;;
32786;SDS011;19139;49.372;8.580;2023-04-06T07:28:05;9.23;;;5.00;;
32786;SDS011;19139;49.372;8.580;2023-04-06T07:30:32;6.37;;;4.33;;
32786;SDS011;19139;49.372;8.580;2023-04-06T07:33:02;6.33;;;3.90;;
32786;SDS011;19139;49.372;8.580;2023-04-06T07:35:33;10.13;;;4.70;;
32786;SDS011;19139;49.372;8.580;2023-04-06T07:38:07;6.57;;;3.87;;
32786;SDS011;19139;49.372;8.580;2023-04-06T07:40:34;6.37;;;4.13;;
32786;SDS011;19139;49.372;8.580;2023-04-06T07:43:00;5.80;;;3.60;;
32786;SDS011;19139;49.372;8.580;2023-04-06T07:45:28;8.43;;;4.23;;
32786;SDS011;19139;49.372;8.580;2023-04-06T07:47:54;6.97;;;4.20;;
32786;SDS011;19139;49.372;8.580;2023-04-06T07:50:21;5.63;;;4.23;;
32786;SDS011;19139;49.372;8.580;2023-04-06T07:52:48;6.80;;;4.23;;
32786;SDS011;19139;49.372;8.580;2023-04-06T07:55:20;7.70;;;4.60;;
32786;SDS011;19139;49.372;8.580;2023-04-06T07:57:46;6.23;;;3.63;;
32786;SDS011;19139;49.372;8.580;2023-04-06T08:00:13;8.83;;;4.27;;
32786;SDS011;19139;49.372;8.580;2023-04-06T08:02:40;6.50;;;4.03;;
32786;SDS011;19139;49.372;8.580;2023-04-06T08:05:07;6.77;;;3.93;;
32786;SDS011;19139;49.372;8.580;2023-04-06T08:07:39;5.60;;;4.50;;
32786;SDS011;19139;49.372;8.580;2023-04-06T08:10:10;7.87;;;3.50;;
32786;SDS011;19139;49.372;8.580;2023-04-06T08:12:42;5.70;;;3.87;;
32786;SDS011;19139;49.372;8.580;2023-04-06T08:15:14;7.97;;;3.67;;
32786;SDS011;19139;49.372;8.580;2023-04-06T08:17:41;6.07;;;3.93;;
32786;SDS011;19139;49.372;8.580;2023-04-06T08:20:07;5.60;;;3.70;;
32786;SDS011;19139;49.372;8.580;2023-04-06T08:22:34;6.57;;;3.73;;
32786;SDS011;19139;49.372;8.580;2023-04-06T08:25:06;5.37;;;3.63;;
32786;SDS011;19139;49.372;8.580;2023-04-06T08:27:33;8.70;;;4.63;;
32786;SDS011;19139;49.372;8.580;2023-04-06T08:30:00;5.63;;;3.10;;
32786;SDS011;19139;49.372;8.580;2023-04-06T08:32:32;5.13;;;3.50;;
32786;SDS011;19139;49.372;8.580;2023-04-06T08:34:59;7.97;;;3.80;;
32786;SDS011;19139;49.372;8.580;2023-04-06T08:37:30;4.77;;;3.30;;
32786;SDS011;19139;49.372;8.580;2023-04-06T08:39:57;4.37;;;3.40;;
32786;SDS011;19139;49.372;8.580;2023-04-06T08:42:31;4.67;;;3.73;;
32786;SDS011;19139;49.372;8.580;2023-04-06T08:44:58;6.97;;;3.97;;
32786;SDS011;19139;49.372;8.580;2023-04-06T08:47:31;4.90;;;3.23;;
32786;SDS011;19139;49.372;8.580;2023-04-06T08:50:03;5.57;;;3.60;;
32786;SDS011;19139;49.372;8.580;2023-04-06T08:52:35;6.87;;;4.00;;
32786;SDS011;19139;49.372;8.580;2023-04-06T08:55:04;5.43;;;3.70;;
32786;SDS011;19139;49.372;8.580;2023-04-06T08:57:31;5.20;;;3.30;;
32786;SDS011;19139;49.372;8.580;2023-04-06T09:00:03;4.77;;;3.17;;
32786;SDS011;19139;49.372;8.580;2023-04-06T09:02:31;6.83;;;3.53;;
32786;SDS011;19139;49.372;8.580;2023-04-06T09:04:58;4.30;;;3.57;;
32786;SDS011;19139;49.372;8.580;2023-04-06T09:07:27;5.73;;;3.40;;
32786;SDS011;19139;49.372;8.580;2023-04-06T09:09:55;6.07;;;3.50;;
32786;SDS011;19139;49.372;8.580;2023-04-06T09:12:25;4.27;;;3.13;;
32786;SDS011;19139;49.372;8.580;2023-04-06T09:14:53;5.87;;;3.30;;
32786;SDS011;19139;49.372;8.580;2023-04-06T09:17:27;4.80;;;3.50;;
32786;SDS011;19139;49.372;8.580;2023-04-06T09:20:00;5.47;;;3.80;;
32786;SDS011;19139;49.372;8.580;2023-04-06T09:22:35;5.33;;;3.03;;
32786;SDS011;19139;49.372;8.580;2023-04-06T09:25:03;5.10;;;3.63;;
32786;SDS011;19139;49.372;8.580;2023-04-06T09:27:31;6.17;;;3.37;;
32786;SDS011;19139;49.372;8.580;2023-04-06T09:30:07;4.90;;;3.50;;
32786;SDS011;19139;49.372;8.580;2023-04-06T09:32:48;4.33;;;3.33;;
32786;SDS011;19139;49.372;8.580;2023-04-06T09:35:17;4.83;;;3.40;;
32786;SDS011;19139;49.372;8.580;2023-04-06T09:37:51;4.27;;;3.57;;
32786;SDS011;19139;49.372;8.580;2023-04-06T09:40:18;4.53;;;3.33;;
32786;SDS011;19139;49.372;8.580;2023-04-06T09:42:45;5.00;;;3.10;;
32786;SDS011;19139;49.372;8.580;2023-04-06T09:45:13;4.57;;;3.33;;
32786;SDS011;19139;49.372;8.580;2023-04-06T09:47:42;6.67;;;3.80;;
32786;SDS011;19139;49.372;8.580;2023-04-06T09:50:11;5.23;;;3.40;;
32786;SDS011;19139;49.372;8.580;2023-04-06T09:52:48;3.73;;;3.07;;
32786;SDS011;19139;49.372;8.580;2023-04-06T09:55:23;5.37;;;3.40;;
32786;SDS011;19139;49.372;8.580;2023-04-06T09:57:57;3.97;;;3.00;;
32786;SDS011;19139;49.372;8.580;2023-04-06T10:00:30;4.47;;;3.07;;
32786;SDS011;19139;49.372;8.580;2023-04-06T10:06:00;4.87;;;3.10;;
32786;SDS011;19139;49.372;8.580;2023-04-06T10:08:35;4.33;;;3.00;;
32786;SDS011;19139;49.372;8.580;2023-04-06T10:11:07;5.60;;;3.33;;
32786;SDS011;19139;49.372;8.580;2023-04-06T10:13:35;3.30;;;2.93;;
32786;SDS011;19139;49.372;8.580;2023-04-06T10:16:02;4.40;;;3.20;;
32786;SDS011;19139;49.372;8.580;2023-04-06T10:18:29;5.00;;;3.33;;
32786;SDS011;19139;49.372;8.580;2023-04-06T10:23:31;4.07;;;2.97;;
32786;SDS011;19139;49.372;8.580;2023-04-06T10:26:01;3.33;;;2.93;;
32786;SDS011;19139;49.372;8.580;2023-04-06T10:28:32;4.73;;;3.77;;
32786;SDS011;19139;49.372;8.580;2023-04-06T10:31:02;4.00;;;2.80;;
32786;SDS011;19139;49.372;8.580;2023-04-06T10:33:37;3.57;;;3.17;;
32786;SDS011;19139;49.372;8.580;2023-04-06T10:36:10;4.60;;;2.77;;
32786;SDS011;19139;49.372;8.580;2023-04-06T10:38:41;4.77;;;3.30;;
32786;SDS011;19139;49.372;8.580;2023-04-06T10:41:09;3.67;;;3.13;;
32786;SDS011;19139;49.372;8.580;2023-04-06T10:43:37;4.80;;;3.60;;
32786;SDS011;19139;49.372;8.580;2023-04-06T10:46:05;2.90;;;2.60;;
32786;SDS011;19139;49.372;8.580;2023-04-06T10:48:43;3.20;;;2.80;;
32786;SDS011;19139;49.372;8.580;2023-04-06T10:51:19;3.23;;;2.90;;
32786;SDS011;19139;49.372;8.580;2023-04-06T10:53:49;3.37;;;3.07;;
32786;SDS011;19139;49.372;8.580;2023-04-06T10:56:21;2.90;;;2.60;;
32786;SDS011;19139;49.372;8.580;2023-04-06T10:58:52;4.67;;;3.50;;
32786;SDS011;19139;49.372;8.580;2023-04-06T11:01:26;5.20;;;3.37;;
32786;SDS011;19139;49.372;8.580;2023-04-06T11:03:54;4.13;;;3.13;;
32786;SDS011;19139;49.372;8.580;2023-04-06T11:06:30;5.47;;;3.40;;
32786;SDS011;19139;49.372;8.580;2023-04-06T11:08:59;3.43;;;3.10;;
32786;SDS011;19139;49.372;8.580;2023-04-06T11:11:26;3.77;;;3.20;;
32786;SDS011;19139;49.372;8.580;2023-04-06T11:16:22;4.03;;;3.10;;
32786;SDS011;19139;49.372;8.580;2023-04-06T11:19:04;4.40;;;2.80;;
32786;SDS011;19139;49.372;8.580;2023-04-06T11:21:38;5.03;;;3.60;;
32786;SDS011;19139;49.372;8.580;2023-04-06T11:24:21;4.10;;;3.37;;
32786;SDS011;19139;49.372;8.580;2023-04-06T11:26:52;4.00;;;2.90;;
32786;SDS011;19139;49.372;8.580;2023-04-06T11:29:23;4.53;;;2.90;;
32786;SDS011;19139;49.372;8.580;2023-04-06T11:31:53;4.90;;;3.27;;
32786;SDS011;19139;49.372;8.580;2023-04-06T11:34:24;3.73;;;2.87;;
32786;SDS011;19139;49.372;8.580;2023-04-06T11:36:55;3.87;;;2.90;;
32786;SDS011;19139;49.372;8.580;2023-04-06T11:39:40;4.53;;;3.10;;
32786;SDS011;19139;49.372;8.580;2023-04-06T11:42:27;3.30;;;3.00;;
32786;SDS011;19139;49.372;8.580;2023-04-06T11:47:32;4.57;;;3.13;;
32786;SDS011;19139;49.372;8.580;2023-04-06T11:50:06;3.80;;;3.00;;
32786;SDS011;19139;49.372;8.580;2023-04-06T11:52:33;2.90;;;2.60;;
32786;SDS011;19139;49.372;8.580;2023-04-06T11:55:10;4.57;;;3.30;;
32786;SDS011;19139;49.372;8.580;2023-04-06T11:57:43;3.10;;;2.80;;
32786;SDS011;19139;49.372;8.580;2023-04-06T12:00:11;4.10;;;2.80;;
32786;SDS011;19139;49.372;8.580;2023-04-06T12:02:38;3.53;;;3.10;;
32786;SDS011;19139;49.372;8.580;2023-04-06T12:05:06;3.53;;;3.20;;
32786;SDS011;19139;49.372;8.580;2023-04-06T12:07:34;4.30;;;3.20;;
32786;SDS011;19139;49.372;8.580;2023-04-06T12:10:01;4.93;;;3.33;;
32786;SDS011;19139;49.372;8.580;2023-04-06T12:12:28;4.13;;;3.00;;
32786;SDS011;19139;49.372;8.580;2023-04-06T12:15:00;4.20;;;2.80;;
32786;SDS011;19139;49.372;8.580;2023-04-06T12:17:27;4.00;;;3.40;;
32786;SDS011;19139;49.372;8.580;2023-04-06T12:19:54;4.23;;;3.83;;
32786;SDS011;19139;49.372;8.580;2023-04-06T12:22:26;4.60;;;3.63;;
32786;SDS011;19139;49.372;8.580;2023-04-06T12:24:53;5.63;;;3.67;;
32786;SDS011;19139;49.372;8.580;2023-04-06T12:27:20;4.37;;;3.97;;
32786;SDS011;19139;49.372;8.580;2023-04-06T12:29:52;3.93;;;3.47;;
32786;SDS011;19139;49.372;8.580;2023-04-06T12:32:19;5.03;;;4.37;;
32786;SDS011;19139;49.372;8.580;2023-04-06T12:34:46;4.87;;;3.67;;
32786;SDS011;19139;49.372;8.580;2023-04-06T12:37:13;4.17;;;3.77;;
32786;SDS011;19139;49.372;8.580;2023-04-06T12:39:39;6.27;;;4.17;;
32786;SDS011;19139;49.372;8.580;2023-04-06T12:42:11;5.97;;;4.47;;
32786;SDS011;19139;49.372;8.580;2023-04-06T12:44:44;6.43;;;3.83;;
32786;SDS011;19139;49.372;8.580;2023-04-06T12:47:18;5.50;;;4.10;;
32786;SDS011;19139;49.372;8.580;2023-04-06T12:49:44;5.50;;;4.23;;
32786;SDS011;19139;49.372;8.580;2023-04-06T12:52:11;4.27;;;3.67;;
32786;SDS011;19139;49.372;8.580;2023-04-06T12:54:38;4.97;;;3.77;;
32786;SDS011;19139;49.372;8.580;2023-04-06T12:57:04;5.47;;;4.43;;
32786;SDS011;19139;49.372;8.580;2023-04-06T12:59:31;4.80;;;3.63;;
32786;SDS011;19139;49.372;8.580;2023-04-06T13:02:01;5.57;;;4.00;;
32786;SDS011;19139;49.372;8.580;2023-04-06T13:04:29;5.27;;;4.00;;
32786;SDS011;19139;49.372;8.580;2023-04-06T13:06:56;7.03;;;4.13;;
32786;SDS011;19139;49.372;8.580;2023-04-06T13:09:23;5.77;;;4.07;;
32786;SDS011;19139;49.372;8.580;2023-04-06T13:11:49;4.73;;;3.90;;
32786;SDS011;19139;49.372;8.580;2023-04-06T13:14:16;6.33;;;4.03;;
32786;SDS011;19139;49.372;8.580;2023-04-06T13:16:43;6.30;;;4.30;;
32786;SDS011;19139;49.372;8.580;2023-04-06T13:19:14;4.70;;;4.20;;
32786;SDS011;19139;49.372;8.580;2023-04-06T13:21:41;6.50;;;4.37;;
32786;SDS011;19139;49.372;8.580;2023-04-06T13:24:08;5.87;;;3.60;;
32786;SDS011;19139;49.372;8.580;2023-04-06T13:26:35;5.97;;;3.73;;
32786;SDS011;19139;49.372;8.580;2023-04-06T13:29:02;5.60;;;4.07;;
32786;SDS011;19139;49.372;8.580;2023-04-06T13:31:29;6.63;;;4.20;;
32786;SDS011;19139;49.372;8.580;2023-04-06T13:33:56;5.40;;;3.50;;
32786;SDS011;19139;49.372;8.580;2023-04-06T13:36:22;5.13;;;3.50;;
32786;SDS011;19139;49.372;8.580;2023-04-06T13:38:49;6.20;;;3.73;;
32786;SDS011;19139;49.372;8.580;2023-04-06T13:41:19;3.67;;;3.20;;
32786;SDS011;19139;49.372;8.580;2023-04-06T13:43:47;4.17;;;3.73;;
32786;SDS011;19139;49.372;8.580;2023-04-06T13:46:14;5.27;;;3.23;;
32786;SDS011;19139;49.372;8.580;2023-04-06T13:48:40;5.87;;;3.87;;
32786;SDS011;19139;49.372;8.580;2023-04-06T13:51:12;6.93;;;3.17;;
32786;SDS011;19139;49.372;8.580;2023-04-06T13:53:44;4.00;;;3.17;;
32786;SDS011;19139;49.372;8.580;2023-04-06T13:56:16;7.93;;;3.60;;
32786;SDS011;19139;49.372;8.580;2023-04-06T13:58:48;5.80;;;3.73;;
32786;SDS011;19139;49.372;8.580;2023-04-06T14:01:15;4.90;;;3.57;;
32786;SDS011;19139;49.372;8.580;2023-04-06T14:03:47;5.03;;;3.40;;
32786;SDS011;19139;49.372;8.580;2023-04-06T14:06:19;3.77;;;3.13;;
32786;SDS011;19139;49.372;8.580;2023-04-06T14:08:56;3.70;;;3.10;;
32786;SDS011;19139;49.372;8.580;2023-04-06T14:11:23;3.90;;;3.17;;
32786;SDS011;19139;49.372;8.580;2023-04-06T14:13:50;3.53;;;2.70;;
32786;SDS011;19139;49.372;8.580;2023-04-06T14:16:16;3.43;;;2.90;;
32786;SDS011;19139;49.372;8.580;2023-04-06T14:18:45;3.47;;;2.83;;
32786;SDS011;19139;49.372;8.580;2023-04-06T14:21:12;3.33;;;2.70;;
32786;SDS011;19139;49.372;8.580;2023-04-06T14:23:38;3.53;;;3.03;;
32786;SDS011;19139;49.372;8.580;2023-04-06T14:26:07;3.20;;;2.90;;
32786;SDS011;19139;49.372;8.580;2023-04-06T14:28:34;5.93;;;2.90;;
32786;SDS011;19139;49.372;8.580;2023-04-06T14:31:02;4.37;;;3.30;;
32786;SDS011;19139;49.372;8.580;2023-04-06T14:33:37;3.67;;;2.90;;
32786;SDS011;19139;49.372;8.580;2023-04-06T14:36:05;5.50;;;3.17;;
32786;SDS011;19139;49.372;8.580;2023-04-06T14:38:32;4.20;;;2.87;;
32786;SDS011;19139;49.372;8.580;2023-04-06T14:41:04;3.47;;;3.00;;
32786;SDS011;19139;49.372;8.580;2023-04-06T14:43:31;4.37;;;2.57;;
32786;SDS011;19139;49.372;8.580;2023-04-06T14:46:01;3.40;;;2.40;;
32786;SDS011;19139;49.372;8.580;2023-04-06T14:48:28;3.83;;;2.80;;
32786;SDS011;19139;49.372;8.580;2023-04-06T14:50:55;2.63;;;2.30;;
32786;SDS011;19139;49.372;8.580;2023-04-06T14:53:22;5.17;;;2.80;;
32786;SDS011;19139;49.372;8.580;2023-04-06T14:55:49;4.77;;;3.03;;
32786;SDS011;19139;49.372;8.580;2023-04-06T14:58:22;3.07;;;2.57;;
32786;SDS011;19139;49.372;8.580;2023-04-06T15:00:55;3.63;;;3.07;;
32786;SDS011;19139;49.372;8.580;2023-04-06T15:03:30;3.70;;;2.90;;
32786;SDS011;19139;49.372;8.580;2023-04-06T15:05:57;3.47;;;2.77;;